createdAt,value
2022-11-16T00:01:12.110Z,6.10
2022-11-16T00:03:41.378Z,5.67
2022-11-16T00:06:09.883Z,5.47
2022-11-16T00:08:38.971Z,5.77
2022-11-16T00:11:07.462Z,6.00
2022-11-16T00:13:35.379Z,6.30
2022-11-16T00:16:03.019Z,5.70
2022-11-16T00:18:31.046Z,6.57
2022-11-16T00:21:00.106Z,6.03
2022-11-16T00:23:28.514Z,5.70
2022-11-16T00:25:56.087Z,6.50
2022-11-16T00:28:23.618Z,6.03
2022-11-16T00:30:59.168Z,6.60
2022-11-16T00:33:27.167Z,6.13
2022-11-16T00:35:54.871Z,6.40
2022-11-16T00:38:24.169Z,6.47
2022-11-16T00:40:51.747Z,6.20
2022-11-16T00:43:19.433Z,6.60
2022-11-16T00:45:47.048Z,6.07
2022-11-16T00:48:14.615Z,6.43
2022-11-16T00:50:42.223Z,6.53
2022-11-16T00:53:13.584Z,5.93
2022-11-16T00:55:42.758Z,6.07
2022-11-16T00:58:10.286Z,6.57
2022-11-16T01:00:38.127Z,6.50
2022-11-16T01:03:05.766Z,6.47
2022-11-16T01:05:33.740Z,6.63
2022-11-16T01:08:01.348Z,6.73
2022-11-16T01:10:29.212Z,6.70
2022-11-16T01:12:57.301Z,6.70
2022-11-16T01:15:26.827Z,6.73
2022-11-16T01:17:55.845Z,6.73
2022-11-16T01:20:25.511Z,7.10
2022-11-16T01:22:53.404Z,7.40
2022-11-16T01:25:21.351Z,7.10
2022-11-16T01:27:48.926Z,7.23
2022-11-16T01:30:17.916Z,6.63
2022-11-16T01:32:45.500Z,6.80
2022-11-16T01:35:17.183Z,6.77
2022-11-16T01:37:45.048Z,6.80
2022-11-16T01:40:14.044Z,6.53
2022-11-16T01:42:41.934Z,7.07
2022-11-16T01:45:20.203Z,6.80
2022-11-16T01:47:47.843Z,7.30
2022-11-16T01:50:17.832Z,7.13
2022-11-16T01:52:48.113Z,7.30
2022-11-16T01:55:16.031Z,7.63
2022-11-16T01:57:44.983Z,7.13
2022-11-16T02:00:14.363Z,7.40
2022-11-16T02:02:43.579Z,6.73
2022-11-16T02:05:12.225Z,6.27
2022-11-16T02:08:07.063Z,6.40
2022-11-16T02:10:48.026Z,5.83
2022-11-16T02:13:24.827Z,6.03
2022-11-16T02:15:56.569Z,7.07
2022-11-16T02:18:32.762Z,6.87
2022-11-16T02:21:07.178Z,6.30
2022-11-16T02:24:07.409Z,7.70
2022-11-16T02:26:43.649Z,7.47
2022-11-16T02:29:24.352Z,8.13
2022-11-16T02:31:57.033Z,7.60
2022-11-16T02:34:25.825Z,7.00
2022-11-16T02:36:54.430Z,7.77
2022-11-16T02:39:25.963Z,7.03
2022-11-16T02:41:54.234Z,6.97
2022-11-16T02:44:26.851Z,5.87
2022-11-16T02:46:58.113Z,5.50
2022-11-16T02:49:26.960Z,6.60
2022-11-16T02:51:54.792Z,6.40
2022-11-16T02:54:24.899Z,6.40
2022-11-16T02:56:56.085Z,6.13
2022-11-16T02:59:27.630Z,5.67
2022-11-16T03:01:59.907Z,5.87
2022-11-16T03:04:30.600Z,6.57
2022-11-16T03:06:58.836Z,6.77
2022-11-16T03:09:28.915Z,6.00
2022-11-16T03:12:00.294Z,5.87
2022-11-16T03:14:32.837Z,5.60
2022-11-16T03:17:02.171Z,5.93
2022-11-16T03:19:34.823Z,5.50
2022-11-16T03:22:07.584Z,5.17
2022-11-16T03:24:35.193Z,4.80
2022-11-16T03:27:07.133Z,5.10
2022-11-16T03:29:42.034Z,4.40
2022-11-16T03:32:14.516Z,4.50
2022-11-16T03:34:45.591Z,3.83
2022-11-16T03:37:14.006Z,3.47
2022-11-16T03:39:42.082Z,3.90
2022-11-16T03:42:13.921Z,3.63
2022-11-16T03:44:43.708Z,3.47
2022-11-16T03:47:11.316Z,3.43
2022-11-16T03:49:38.862Z,3.47
2022-11-16T03:52:06.440Z,3.07
2022-11-16T03:54:33.966Z,3.20
2022-11-16T03:57:01.594Z,3.20
2022-11-16T03:59:29.140Z,3.20
2022-11-16T04:01:58.046Z,2.80
2022-11-16T04:04:43.109Z,2.57
2022-11-16T04:07:28.592Z,2.07
2022-11-16T04:10:13.751Z,2.37
2022-11-16T04:13:01.467Z,2.10
2022-11-16T04:15:46.735Z,2.07
2022-11-16T04:18:33.410Z,2.33
2022-11-16T04:21:19.113Z,2.13
2022-11-16T04:24:04.916Z,2.13
2022-11-16T04:26:46.583Z,1.80
2022-11-16T04:29:14.576Z,2.03
2022-11-16T04:31:59.904Z,1.83
2022-11-16T04:34:46.649Z,1.73
2022-11-16T04:37:33.991Z,2.10
2022-11-16T04:40:01.566Z,1.70
2022-11-16T04:42:29.119Z,1.70
2022-11-16T04:45:14.560Z,1.60
2022-11-16T04:47:42.123Z,1.60
2022-11-16T04:50:11.489Z,1.70
2022-11-16T04:52:39.054Z,1.30
2022-11-16T04:55:07.188Z,1.37
2022-11-16T04:57:34.746Z,1.47
2022-11-16T05:00:02.335Z,1.50
2022-11-16T05:02:29.858Z,1.40
2022-11-16T05:04:57.636Z,1.47
2022-11-16T05:07:26.630Z,1.60
2022-11-16T05:09:54.263Z,1.70
2022-11-16T05:12:23.895Z,1.67
2022-11-16T05:14:51.700Z,1.60
2022-11-16T05:17:19.715Z,1.60
2022-11-16T05:20:19.290Z,1.40
2022-11-16T05:22:53.508Z,1.97
2022-11-16T05:25:21.121Z,1.77
2022-11-16T05:27:48.660Z,1.70
2022-11-16T05:30:16.650Z,1.70
2022-11-16T05:32:44.502Z,1.67
2022-11-16T05:35:12.075Z,1.90
2022-11-16T05:37:41.488Z,1.50
2022-11-16T05:40:12.099Z,1.57
2022-11-16T05:42:39.680Z,1.70
2022-11-16T05:45:08.039Z,1.43
2022-11-16T05:47:35.605Z,1.43
2022-11-16T05:50:03.329Z,1.83
2022-11-16T05:52:30.863Z,1.40
2022-11-16T05:54:58.439Z,1.40
2022-11-16T05:57:27.369Z,1.40
2022-11-16T05:59:54.924Z,1.20
2022-11-16T06:02:22.457Z,1.10
2022-11-16T06:04:50.050Z,1.10
2022-11-16T06:07:17.647Z,1.30
2022-11-16T06:09:45.283Z,1.50
2022-11-16T06:12:12.784Z,1.17
2022-11-16T06:14:41.748Z,1.30
2022-11-16T06:17:10.267Z,1.47
2022-11-16T06:19:38.100Z,1.20
2022-11-16T06:22:06.123Z,1.50
2022-11-16T06:24:33.971Z,1.30
2022-11-16T06:27:01.711Z,1.37
2022-11-16T06:29:29.265Z,1.00
2022-11-16T06:31:58.371Z,1.20
2022-11-16T06:34:25.957Z,1.40
2022-11-16T06:36:53.597Z,1.50
2022-11-16T06:39:21.224Z,1.73
2022-11-16T06:41:48.914Z,1.20
2022-11-16T06:44:16.479Z,1.80
2022-11-16T06:46:43.954Z,1.63
2022-11-16T06:49:12.840Z,1.37
2022-11-16T06:51:40.586Z,1.33
2022-11-16T06:54:08.200Z,1.23
2022-11-16T06:56:36.004Z,1.37
2022-11-16T06:59:03.545Z,1.43
2022-11-16T07:01:31.221Z,1.50
2022-11-16T07:03:58.795Z,1.50
2022-11-16T07:06:27.749Z,1.57
2022-11-16T07:08:55.402Z,1.93
2022-11-16T07:11:22.987Z,2.10
2022-11-16T07:13:50.647Z,2.00
2022-11-16T07:16:18.250Z,2.10
2022-11-16T07:18:45.870Z,1.80
2022-11-16T07:21:15.030Z,1.60
2022-11-16T07:23:44.212Z,1.77
2022-11-16T07:26:12.674Z,1.60
2022-11-16T07:28:47.885Z,1.83
2022-11-16T07:31:17.287Z,1.60
2022-11-16T07:33:44.859Z,1.57
2022-11-16T07:36:13.842Z,1.60
2022-11-16T07:38:41.922Z,1.53
2022-11-16T07:41:12.131Z,1.33
2022-11-16T07:43:40.378Z,1.57
2022-11-16T07:48:58.762Z,1.47
2022-11-16T07:51:26.336Z,1.53
2022-11-16T07:53:55.518Z,1.97
2022-11-16T07:56:24.859Z,1.50
2022-11-16T07:58:52.486Z,1.43
2022-11-16T08:01:20.137Z,1.40
2022-11-16T08:03:48.157Z,1.40
2022-11-16T08:06:18.094Z,1.43
2022-11-16T08:08:45.864Z,1.83
2022-11-16T08:11:13.883Z,1.50
2022-11-16T08:13:43.498Z,1.47
2022-11-16T08:16:12.956Z,1.67
2022-11-16T08:18:41.631Z,1.83
2022-11-16T08:21:11.241Z,1.73
2022-11-16T08:23:40.192Z,1.90
2022-11-16T08:26:09.593Z,1.30
2022-11-16T08:28:38.314Z,1.70
2022-11-16T08:31:10.083Z,1.63
2022-11-16T08:33:37.623Z,2.13
2022-11-16T08:36:09.572Z,1.87
2022-11-16T08:38:40.543Z,2.00
2022-11-16T08:41:08.234Z,1.90
2022-11-16T08:43:36.165Z,1.90
2022-11-16T08:46:03.827Z,1.60
2022-11-16T08:48:33.211Z,1.57
2022-11-16T08:51:20.769Z,1.73
2022-11-16T08:53:49.306Z,1.73
2022-11-16T08:56:18.708Z,2.47
2022-11-16T08:58:47.129Z,2.03
2022-11-16T09:01:17.223Z,1.77
2022-11-16T09:03:46.912Z,2.07
2022-11-16T09:06:15.067Z,1.50
2022-11-16T09:08:44.535Z,2.00
2022-11-16T09:11:13.853Z,1.53
2022-11-16T09:13:41.555Z,1.97
2022-11-16T09:16:09.565Z,2.37
2022-11-16T09:18:37.807Z,1.93
2022-11-16T09:21:07.056Z,1.97
2022-11-16T09:23:34.707Z,1.87
2022-11-16T09:26:03.394Z,1.87
2022-11-16T09:28:31.478Z,1.63
2022-11-16T09:31:01.813Z,2.30
2022-11-16T09:33:31.214Z,1.83
2022-11-16T09:36:02.463Z,2.60
2022-11-16T09:38:54.144Z,2.60
2022-11-16T09:41:32.361Z,1.63
2022-11-16T09:44:04.917Z,2.00
2022-11-16T09:46:34.600Z,1.77
2022-11-16T09:49:13.945Z,2.00
2022-11-16T09:51:46.845Z,2.20
2022-11-16T09:54:18.028Z,1.90
2022-11-16T09:56:46.085Z,2.33
2022-11-16T09:59:18.504Z,2.13
2022-11-16T10:01:49.516Z,1.80
2022-11-16T10:04:21.855Z,2.43
2022-11-16T10:06:53.045Z,2.00
2022-11-16T10:09:22.250Z,2.33
2022-11-16T10:12:02.778Z,1.93
2022-11-16T10:14:39.346Z,2.50
2022-11-16T10:17:12.358Z,2.17
2022-11-16T10:19:48.863Z,2.77
2022-11-16T10:22:27.348Z,1.87
2022-11-16T10:24:59.869Z,2.20
2022-11-16T10:27:57.406Z,1.80
2022-11-16T10:30:25.088Z,1.83
2022-11-16T10:32:56.364Z,2.00
2022-11-16T10:35:27.952Z,1.50
2022-11-16T10:37:58.948Z,2.00
2022-11-16T10:40:31.102Z,2.03
2022-11-16T10:43:02.420Z,1.67
2022-11-16T10:45:38.962Z,2.07
2022-11-16T10:48:15.857Z,1.83
2022-11-16T10:50:45.408Z,2.27
2022-11-16T10:53:14.658Z,2.13
2022-11-16T10:55:43.601Z,2.17
2022-11-16T10:58:11.212Z,1.93
2022-11-16T11:00:42.297Z,1.70
2022-11-16T11:03:11.796Z,1.70
2022-11-16T11:05:48.812Z,2.07
2022-11-16T11:08:26.506Z,2.20
2022-11-16T11:11:03.079Z,2.47
2022-11-16T11:13:30.715Z,2.27
2022-11-16T11:16:16.249Z,2.70
2022-11-16T11:18:43.921Z,2.33
2022-11-16T11:21:15.185Z,1.87
2022-11-16T11:23:45.746Z,2.43
2022-11-16T11:26:35.870Z,2.23
2022-11-16T11:29:09.788Z,2.13
2022-11-16T11:31:43.277Z,1.67
2022-11-16T11:34:17.151Z,2.10
2022-11-16T11:36:47.046Z,1.73
2022-11-16T11:39:32.359Z,2.03
2022-11-16T11:42:22.902Z,1.93
2022-11-16T11:44:57.052Z,2.13
2022-11-16T11:47:56.830Z,2.60
2022-11-16T11:50:23.853Z,2.10
2022-11-16T11:53:02.735Z,2.27
2022-11-16T11:55:30.749Z,2.13
2022-11-16T11:58:00.521Z,2.07
2022-11-16T12:00:28.241Z,2.03
2022-11-16T12:03:25.115Z,2.37
2022-11-16T12:06:08.457Z,1.90
2022-11-16T12:08:50.853Z,1.80
2022-11-16T12:11:23.881Z,1.97
2022-11-16T12:14:06.918Z,1.80
2022-11-16T12:16:39.550Z,2.20
2022-11-16T12:19:22.244Z,2.10
2022-11-16T12:22:00.910Z,2.13
2022-11-16T12:24:41.455Z,2.10
2022-11-16T12:27:16.156Z,1.63
2022-11-16T12:29:52.397Z,1.60
2022-11-16T12:32:44.551Z,2.10
2022-11-16T12:35:31.740Z,1.70
2022-11-16T12:38:05.070Z,2.00
2022-11-16T12:40:38.903Z,1.97
2022-11-16T12:43:12.435Z,2.07
2022-11-16T12:45:49.850Z,2.10
2022-11-16T12:48:40.172Z,1.53
2022-11-16T12:51:13.329Z,2.07
2022-11-16T12:53:59.571Z,2.50
2022-11-16T12:56:36.690Z,2.20
2022-11-16T12:59:21.497Z,1.90
2022-11-16T13:02:00.451Z,2.03
2022-11-16T13:04:31.671Z,1.97
2022-11-16T13:07:09.328Z,1.80
2022-11-16T13:09:40.589Z,1.77
2022-11-16T13:12:14.157Z,1.50
2022-11-16T13:14:44.597Z,1.30
2022-11-16T13:17:20.651Z,2.10
2022-11-16T13:19:59.422Z,1.90
2022-11-16T13:22:28.152Z,1.43
2022-11-16T13:24:58.815Z,1.63
2022-11-16T13:27:33.070Z,1.93
2022-11-16T13:30:05.377Z,2.00
2022-11-16T13:32:45.721Z,2.80
2022-11-16T13:35:15.076Z,2.57
2022-11-16T13:37:46.849Z,3.60
2022-11-16T13:40:27.023Z,3.13
2022-11-16T13:43:04.942Z,1.93
2022-11-16T13:45:35.059Z,1.87
2022-11-16T13:48:08.262Z,1.90
2022-11-16T13:50:38.714Z,2.40
2022-11-16T13:55:57.757Z,1.93
2022-11-16T13:58:26.329Z,2.20
2022-11-16T14:01:00.543Z,2.23
2022-11-16T14:03:39.169Z,2.20
2022-11-16T14:06:31.689Z,2.43
2022-11-16T14:09:00.325Z,2.43
2022-11-16T14:11:34.083Z,2.67
2022-11-16T14:14:05.581Z,3.50
2022-11-16T14:16:50.575Z,2.40
2022-11-16T14:19:55.074Z,2.97
2022-11-16T14:22:35.455Z,3.40
2022-11-16T14:25:08.271Z,3.60
2022-11-16T14:27:40.701Z,3.10
2022-11-16T14:30:14.837Z,1.83
2022-11-16T14:32:45.665Z,2.10
2022-11-16T14:35:26.655Z,2.20
2022-11-16T14:37:58.496Z,1.87
2022-11-16T14:40:26.159Z,2.20
2022-11-16T14:43:15.345Z,2.87
2022-11-16T14:45:47.522Z,3.40
2022-11-16T14:48:17.868Z,2.60
2022-11-16T14:50:48.738Z,2.50
2022-11-16T14:53:17.929Z,2.33
2022-11-16T14:55:46.506Z,1.60
2022-11-16T14:58:19.591Z,3.03
2022-11-16T15:00:54.026Z,2.40
2022-11-16T15:03:23.522Z,2.30
2022-11-16T15:05:52.530Z,2.10
2022-11-16T15:08:23.876Z,2.43
2022-11-16T15:10:52.690Z,4.03
2022-11-16T15:13:22.047Z,3.80
2022-11-16T15:15:50.207Z,2.77
2022-11-16T15:18:22.973Z,2.60
2022-11-16T15:20:59.184Z,2.70
2022-11-16T15:23:30.657Z,2.43
2022-11-16T15:26:00.174Z,1.60
2022-11-16T15:28:29.120Z,1.90
2022-11-16T15:30:59.038Z,1.47
2022-11-16T15:33:29.350Z,2.13
2022-11-16T15:35:58.626Z,1.80
2022-11-16T15:38:28.062Z,1.60
2022-11-16T15:40:57.655Z,1.80
2022-11-16T15:43:27.158Z,1.70
2022-11-16T15:45:55.083Z,1.80
2022-11-16T15:48:24.050Z,1.60
2022-11-16T15:51:07.087Z,1.90
2022-11-16T15:53:37.657Z,2.10
2022-11-16T15:56:07.302Z,1.73
2022-11-16T15:58:38.790Z,1.80
2022-11-16T16:01:06.837Z,1.90
2022-11-16T16:03:36.577Z,2.10
2022-11-16T16:06:07.705Z,2.37
2022-11-16T16:08:36.968Z,1.87
2022-11-16T16:11:07.767Z,2.10
2022-11-16T16:13:38.284Z,1.70
2022-11-16T16:16:26.030Z,2.47
2022-11-16T16:18:54.952Z,2.57
2022-11-16T16:21:24.305Z,2.23
2022-11-16T16:23:53.566Z,2.07
2022-11-16T16:26:22.378Z,2.23
2022-11-16T16:28:51.151Z,1.90
2022-11-16T16:31:20.050Z,2.40
2022-11-16T16:33:47.888Z,2.70
2022-11-16T16:36:15.447Z,7.73
2022-11-16T16:38:44.347Z,4.30
2022-11-16T16:41:23.774Z,3.27
2022-11-16T16:43:52.016Z,2.60
2022-11-16T16:46:20.006Z,2.63
2022-11-16T16:48:47.595Z,2.17
2022-11-16T16:51:15.277Z,1.73
2022-11-16T16:53:44.191Z,1.87
2022-11-16T16:56:15.963Z,1.60
2022-11-16T16:58:43.523Z,1.90
2022-11-16T17:01:11.798Z,1.77
2022-11-16T17:03:39.375Z,1.90
2022-11-16T17:06:07.169Z,1.50
2022-11-16T17:08:35.327Z,2.10
2022-11-16T17:11:04.635Z,1.70
2022-11-16T17:13:32.362Z,1.60
2022-11-16T17:16:00.136Z,2.13
2022-11-16T17:18:27.958Z,2.47
2022-11-16T17:20:55.522Z,1.97
2022-11-16T17:23:23.130Z,1.90
2022-11-16T17:25:50.651Z,1.90
2022-11-16T17:28:19.567Z,2.43
2022-11-16T17:30:47.106Z,2.77
2022-11-16T17:33:14.621Z,2.17
2022-11-16T17:35:42.380Z,2.27
2022-11-16T17:38:12.298Z,2.27
2022-11-16T17:40:39.842Z,1.77
2022-11-16T17:43:07.392Z,2.10
2022-11-16T17:45:36.257Z,1.70
2022-11-16T17:48:03.911Z,1.63
2022-11-16T17:50:31.450Z,2.20
2022-11-16T17:52:58.971Z,2.00
2022-11-16T17:55:26.560Z,2.30
2022-11-16T17:57:54.134Z,2.47
2022-11-16T18:00:21.833Z,4.07
2022-11-16T18:02:50.755Z,3.90
2022-11-16T18:05:18.341Z,3.27
2022-11-16T18:07:45.887Z,3.93
2022-11-16T18:10:18.930Z,4.50
2022-11-16T18:12:46.816Z,4.00
2022-11-16T18:15:28.185Z,4.00
2022-11-16T18:17:58.075Z,3.60
2022-11-16T18:20:27.577Z,3.23
2022-11-16T18:22:55.151Z,3.37
2022-11-16T18:25:22.783Z,3.50
2022-11-16T18:27:52.625Z,3.33
2022-11-16T18:30:20.487Z,2.70
2022-11-16T18:32:48.162Z,3.07
2022-11-16T18:35:17.664Z,2.70
2022-11-16T18:37:45.192Z,2.60
2022-11-16T18:40:13.667Z,2.60
2022-11-16T18:42:41.824Z,2.70
2022-11-16T18:45:10.212Z,2.57
2022-11-16T18:47:37.901Z,2.93
2022-11-16T18:50:16.347Z,5.20
2022-11-16T18:52:48.026Z,7.40
2022-11-16T18:55:15.672Z,6.00
2022-11-16T18:57:43.217Z,3.50
2022-11-16T19:00:12.012Z,3.10
2022-11-16T19:02:39.576Z,3.00
2022-11-16T19:05:08.450Z,2.73
2022-11-16T19:07:36.079Z,2.50
2022-11-16T19:10:05.669Z,3.07
2022-11-16T19:12:33.283Z,2.40
2022-11-16T19:15:00.872Z,2.17
2022-11-16T19:17:28.416Z,2.40
2022-11-16T19:19:56.018Z,3.00
2022-11-16T19:22:23.569Z,3.30
2022-11-16T19:24:51.187Z,3.23
2022-11-16T19:27:20.130Z,2.43
2022-11-16T19:29:47.719Z,2.57
2022-11-16T19:32:15.285Z,2.23
2022-11-16T19:34:42.936Z,2.63
2022-11-16T19:37:10.703Z,2.40
2022-11-16T19:39:38.442Z,2.73
2022-11-16T19:42:06.199Z,2.67
2022-11-16T19:44:35.210Z,3.00
2022-11-16T19:47:02.782Z,2.67
2022-11-16T19:49:30.361Z,2.70
2022-11-16T19:51:59.256Z,3.00
2022-11-16T19:54:27.103Z,3.30
2022-11-16T19:56:55.377Z,2.97
2022-11-16T19:59:23.144Z,3.50
2022-11-16T20:01:52.062Z,3.80
2022-11-16T20:04:19.665Z,4.00
2022-11-16T20:06:47.254Z,5.50
2022-11-16T20:09:14.842Z,7.10
2022-11-16T20:11:42.913Z,5.30
2022-11-16T20:14:13.594Z,4.03
2022-11-16T20:16:42.706Z,4.07
2022-11-16T20:19:11.645Z,2.80
2022-11-16T20:21:40.304Z,2.87
2022-11-16T20:24:10.493Z,3.17
2022-11-16T20:26:41.640Z,2.20
2022-11-16T20:29:11.570Z,2.37
2022-11-16T20:31:42.417Z,2.43
2022-11-16T20:34:14.761Z,2.50
2022-11-16T20:36:43.607Z,2.10
2022-11-16T20:39:13.844Z,2.97
2022-11-16T20:41:41.481Z,3.30
2022-11-16T20:44:16.364Z,3.17
2022-11-16T20:46:45.173Z,2.77
2022-11-16T20:49:14.365Z,2.80
2022-11-16T20:51:42.345Z,2.30
2022-11-16T20:54:09.988Z,2.37
2022-11-16T20:56:37.665Z,2.60
2022-11-16T20:59:05.320Z,2.50
2022-11-16T21:01:33.023Z,2.70
2022-11-16T21:04:02.016Z,2.23
2022-11-16T21:06:31.182Z,2.30
2022-11-16T21:08:59.303Z,2.40
2022-11-16T21:11:28.954Z,2.27
2022-11-16T21:14:14.118Z,2.30
2022-11-16T21:16:41.687Z,2.40
2022-11-16T21:19:09.332Z,1.97
2022-11-16T21:21:40.374Z,2.30
2022-11-16T21:24:08.924Z,2.10
2022-11-16T21:26:37.094Z,2.27
2022-11-16T21:29:04.785Z,2.30
2022-11-16T21:31:34.125Z,2.30
2022-11-16T21:34:02.135Z,2.83
2022-11-16T21:36:31.070Z,2.57
2022-11-16T21:39:00.896Z,2.53
2022-11-16T21:41:28.622Z,2.73
2022-11-16T21:43:56.645Z,1.90
2022-11-16T21:46:25.885Z,2.37
2022-11-16T21:48:55.293Z,2.40
2022-11-16T21:51:25.267Z,2.57
2022-11-16T21:53:53.071Z,2.50
2022-11-16T21:56:23.276Z,3.07
2022-11-16T21:58:52.644Z,2.53
2022-11-16T22:01:20.685Z,2.90
2022-11-16T22:04:08.346Z,2.50
2022-11-16T22:06:53.992Z,2.20
2022-11-16T22:09:22.088Z,2.50
2022-11-16T22:11:51.025Z,1.90
2022-11-16T22:14:18.622Z,2.30
2022-11-16T22:16:46.212Z,2.17
2022-11-16T22:19:13.773Z,2.40
2022-11-16T22:21:41.406Z,1.83
2022-11-16T22:24:09.546Z,1.80
2022-11-16T22:26:38.100Z,2.10
2022-11-16T22:29:07.030Z,2.00
2022-11-16T22:31:36.036Z,1.90
2022-11-16T22:34:03.927Z,2.30
2022-11-16T22:36:31.532Z,2.00
2022-11-16T22:38:59.085Z,2.10
2022-11-16T22:41:26.860Z,2.53
2022-11-16T22:43:54.449Z,2.57
2022-11-16T22:46:23.360Z,1.80
2022-11-16T22:48:50.961Z,1.90
2022-11-16T22:51:20.530Z,2.37
2022-11-16T22:53:48.462Z,2.00
2022-11-16T22:56:16.229Z,2.30
2022-11-16T22:58:43.803Z,2.57
2022-11-16T23:01:11.347Z,2.50
2022-11-16T23:03:40.852Z,2.30
2022-11-16T23:06:09.048Z,2.40
2022-11-16T23:08:36.935Z,2.53
2022-11-16T23:11:23.608Z,3.57
2022-11-16T23:14:09.293Z,3.47
2022-11-16T23:16:42.141Z,2.70
2022-11-16T23:19:26.763Z,2.97
2022-11-16T23:22:12.369Z,2.50
2022-11-16T23:24:58.191Z,2.53
2022-11-16T23:27:33.213Z,2.50
2022-11-16T23:30:06.424Z,2.33
2022-11-16T23:32:38.063Z,2.50
2022-11-16T23:35:08.311Z,3.20
2022-11-16T23:37:36.657Z,2.60
2022-11-16T23:40:04.978Z,2.70
2022-11-16T23:42:50.684Z,2.37
2022-11-16T23:45:18.459Z,2.50
2022-11-16T23:47:46.273Z,2.70
2022-11-16T23:50:15.339Z,2.50
2022-11-16T23:52:43.394Z,2.37
2022-11-16T23:55:11.246Z,2.30
2022-11-16T23:57:39.053Z,2.20
